sensor_id;sensor_type;location;lat;lon;timestamp;P1;durP1;ratioP1;P2;durP2;ratioP2
48777;SDS011;34578;0.000;0.000;2022-11-15T00:01:33;5.20;;;3.97;;
48777;SDS011;34578;0.000;0.000;2022-11-15T00:06:52;4.97;;;3.22;;
48777;SDS011;34578;0.000;0.000;2022-11-15T00:12:11;4.95;;;3.40;;
48777;SDS011;34578;0.000;0.000;2022-11-15T00:17:30;4.22;;;3.60;;
48777;SDS011;34578;0.000;0.000;2022-11-15T00:22:49;4.18;;;3.75;;
48777;SDS011;34578;0.000;0.000;2022-11-15T00:28:08;6.03;;;3.65;;
48777;SDS011;34578;0.000;0.000;2022-11-15T00:33:27;4.90;;;3.42;;
48777;SDS011;34578;0.000;0.000;2022-11-15T00:38:46;4.53;;;3.53;;
48777;SDS011;34578;0.000;0.000;2022-11-15T00:44:05;6.05;;;3.38;;
48777;SDS011;34578;0.000;0.000;2022-11-15T00:49:24;4.65;;;3.33;;
48777;SDS011;34578;0.000;0.000;2022-11-15T00:54:43;4.38;;;3.15;;
48777;SDS011;34578;0.000;0.000;2022-11-15T01:00:02;4.15;;;3.20;;
48777;SDS011;34578;0.000;0.000;2022-11-15T01:05:21;4.90;;;3.58;;
48777;SDS011;34578;0.000;0.000;2022-11-15T01:10:41;4.55;;;3.90;;
48777;SDS011;34578;0.000;0.000;2022-11-15T01:16:14;4.72;;;3.40;;
48777;SDS011;34578;0.000;0.000;2022-11-15T01:21:35;7.93;;;3.83;;
48777;SDS011;34578;0.000;0.000;2022-11-15T01:26:54;5.95;;;3.30;;
48777;SDS011;34578;0.000;0.000;2022-11-15T01:32:13;3.58;;;3.03;;
48777;SDS011;34578;0.000;0.000;2022-11-15T01:37:32;4.30;;;2.95;;
48777;SDS011;34578;0.000;0.000;2022-11-15T01:42:51;4.75;;;3.17;;
48777;SDS011;34578;0.000;0.000;2022-11-15T01:48:10;5.70;;;3.00;;
48777;SDS011;34578;0.000;0.000;2022-11-15T01:53:30;4.30;;;2.95;;
48777;SDS011;34578;0.000;0.000;2022-11-15T01:58:52;5.70;;;3.08;;
48777;SDS011;34578;0.000;0.000;2022-11-15T02:04:18;4.47;;;2.92;;
48777;SDS011;34578;0.000;0.000;2022-11-15T02:09:42;3.45;;;2.88;;
48777;SDS011;34578;0.000;0.000;2022-11-15T02:15:02;2.97;;;2.75;;
48777;SDS011;34578;0.000;0.000;2022-11-15T02:43:03;3.22;;;2.83;;
48777;SDS011;34578;0.000;0.000;2022-11-15T02:48:46;2.88;;;2.65;;
48777;SDS011;34578;0.000;0.000;2022-11-15T02:54:06;3.90;;;2.50;;
48777;SDS011;34578;0.000;0.000;2022-11-15T03:21:29;3.83;;;3.17;;
48777;SDS011;34578;0.000;0.000;2022-11-15T03:26:51;3.05;;;2.72;;
48777;SDS011;34578;0.000;0.000;2022-11-15T03:32:16;3.45;;;3.10;;
48777;SDS011;34578;0.000;0.000;2022-11-15T03:37:57;3.10;;;2.15;;
48777;SDS011;34578;0.000;0.000;2022-11-15T03:49:07;5.30;;;3.13;;
48777;SDS011;34578;0.000;0.000;2022-11-15T03:54:32;6.93;;;4.72;;
48777;SDS011;34578;0.000;0.000;2022-11-15T03:59:51;3.58;;;2.60;;
48777;SDS011;34578;0.000;0.000;2022-11-15T04:05:10;2.50;;;2.30;;
48777;SDS011;34578;0.000;0.000;2022-11-15T04:10:29;4.55;;;2.60;;
48777;SDS011;34578;0.000;0.000;2022-11-15T04:15:48;4.13;;;2.40;;
48777;SDS011;34578;0.000;0.000;2022-11-15T04:21:07;3.90;;;2.25;;
48777;SDS011;34578;0.000;0.000;2022-11-15T04:26:45;2.85;;;2.63;;
48777;SDS011;34578;0.000;0.000;2022-11-15T04:32:05;3.70;;;2.40;;
48777;SDS011;34578;0.000;0.000;2022-11-15T04:37:25;2.35;;;2.15;;
48777;SDS011;34578;0.000;0.000;2022-11-15T04:42:44;4.45;;;2.30;;
48777;SDS011;34578;0.000;0.000;2022-11-15T04:48:03;2.80;;;2.42;;
48777;SDS011;34578;0.000;0.000;2022-11-15T04:53:23;3.10;;;2.10;;
48777;SDS011;34578;0.000;0.000;2022-11-15T04:58:42;3.22;;;2.05;;
48777;SDS011;34578;0.000;0.000;2022-11-15T05:04:01;3.80;;;2.22;;
48777;SDS011;34578;0.000;0.000;2022-11-15T05:09:38;3.35;;;1.90;;
48777;SDS011;34578;0.000;0.000;2022-11-15T05:14:57;4.13;;;2.50;;
48777;SDS011;34578;0.000;0.000;2022-11-15T05:20:16;1.80;;;1.70;;
48777;SDS011;34578;0.000;0.000;2022-11-15T05:25:35;4.32;;;2.10;;
48777;SDS011;34578;0.000;0.000;2022-11-15T05:31:01;7.30;;;2.00;;
48777;SDS011;34578;0.000;0.000;2022-11-15T05:36:47;2.22;;;1.90;;
48777;SDS011;34578;0.000;0.000;2022-11-15T05:42:10;5.60;;;1.95;;
48777;SDS011;34578;0.000;0.000;2022-11-15T05:47:31;6.57;;;2.80;;
48777;SDS011;34578;0.000;0.000;2022-11-15T05:52:52;9.93;;;2.08;;
48777;SDS011;34578;0.000;0.000;2022-11-15T05:58:12;5.95;;;2.58;;
48777;SDS011;34578;0.000;0.000;2022-11-15T06:03:31;4.95;;;2.10;;
48777;SDS011;34578;0.000;0.000;2022-11-15T06:08:50;12.98;;;2.50;;
48777;SDS011;34578;0.000;0.000;2022-11-15T06:14:09;9.05;;;2.70;;
48777;SDS011;34578;0.000;0.000;2022-11-15T06:19:28;20.65;;;3.17;;
48777;SDS011;34578;0.000;0.000;2022-11-15T06:24:51;5.63;;;2.35;;
48777;SDS011;34578;0.000;0.000;2022-11-15T06:30:10;7.90;;;3.15;;
48777;SDS011;34578;0.000;0.000;2022-11-15T06:35:29;9.32;;;2.78;;
48777;SDS011;34578;0.000;0.000;2022-11-15T06:40:49;4.05;;;2.55;;
48777;SDS011;34578;0.000;0.000;2022-11-15T06:46:08;11.30;;;3.25;;
48777;SDS011;34578;0.000;0.000;2022-11-15T06:51:27;14.00;;;3.30;;
48777;SDS011;34578;0.000;0.000;2022-11-15T06:56:45;2.92;;;2.00;;
48777;SDS011;34578;0.000;0.000;2022-11-15T07:02:05;5.65;;;2.10;;
48777;SDS011;34578;0.000;0.000;2022-11-15T07:07:24;3.08;;;2.25;;
48777;SDS011;34578;0.000;0.000;2022-11-15T07:12:46;8.32;;;2.00;;
48777;SDS011;34578;0.000;0.000;2022-11-15T07:18:05;5.82;;;2.38;;
48777;SDS011;34578;0.000;0.000;2022-11-15T07:23:24;7.88;;;2.00;;
48777;SDS011;34578;0.000;0.000;2022-11-15T07:28:43;4.05;;;2.22;;
48777;SDS011;34578;0.000;0.000;2022-11-15T07:34:02;7.18;;;4.32;;
48777;SDS011;34578;0.000;0.000;2022-11-15T07:39:21;2.85;;;1.92;;
48777;SDS011;34578;0.000;0.000;2022-11-15T07:44:40;3.97;;;2.42;;
48777;SDS011;34578;0.000;0.000;2022-11-15T07:49:59;2.70;;;1.63;;
48777;SDS011;34578;0.000;0.000;2022-11-15T07:55:18;3.30;;;2.00;;
48777;SDS011;34578;0.000;0.000;2022-11-15T08:00:37;4.90;;;2.17;;
48777;SDS011;34578;0.000;0.000;2022-11-15T08:05:56;3.78;;;2.05;;
48777;SDS011;34578;0.000;0.000;2022-11-15T08:11:15;2.10;;;1.90;;
48777;SDS011;34578;0.000;0.000;2022-11-15T08:16:34;2.88;;;1.90;;
48777;SDS011;34578;0.000;0.000;2022-11-15T08:21:53;3.95;;;2.15;;
48777;SDS011;34578;0.000;0.000;2022-11-15T08:27:12;2.53;;;2.10;;
48777;SDS011;34578;0.000;0.000;2022-11-15T08:32:34;3.05;;;2.10;;
48777;SDS011;34578;0.000;0.000;2022-11-15T08:37:53;3.13;;;1.83;;
48777;SDS011;34578;0.000;0.000;2022-11-15T08:43:12;4.47;;;1.92;;
48777;SDS011;34578;0.000;0.000;2022-11-15T08:48:31;1.90;;;1.70;;
48777;SDS011;34578;0.000;0.000;2022-11-15T08:53:50;3.17;;;2.00;;
48777;SDS011;34578;0.000;0.000;2022-11-15T08:59:09;2.70;;;1.90;;
48777;SDS011;34578;0.000;0.000;2022-11-15T09:04:28;3.92;;;1.80;;
48777;SDS011;34578;0.000;0.000;2022-11-15T09:09:46;2.95;;;1.73;;
48777;SDS011;34578;0.000;0.000;2022-11-15T09:15:06;2.88;;;1.52;;
48777;SDS011;34578;0.000;0.000;2022-11-15T09:20:25;1.92;;;1.60;;
48777;SDS011;34578;0.000;0.000;2022-11-15T09:25:44;3.55;;;1.45;;
48777;SDS011;34578;0.000;0.000;2022-11-15T09:31:03;1.98;;;1.58;;
48777;SDS011;34578;0.000;0.000;2022-11-15T09:36:24;3.13;;;2.10;;
48777;SDS011;34578;0.000;0.000;2022-11-15T09:47:38;1.73;;;1.63;;
48777;SDS011;34578;0.000;0.000;2022-11-15T09:53:42;2.70;;;1.60;;
48777;SDS011;34578;0.000;0.000;2022-11-15T09:59:11;2.35;;;1.98;;
48777;SDS011;34578;0.000;0.000;2022-11-15T10:04:13;2.17;;;1.60;;
48777;SDS011;34578;0.000;0.000;2022-11-15T10:14:48;2.67;;;1.50;;
48777;SDS011;34578;0.000;0.000;2022-11-15T10:30:15;1.95;;;1.30;;
48777;SDS011;34578;0.000;0.000;2022-11-15T10:35:18;2.53;;;1.50;;
48777;SDS011;34578;0.000;0.000;2022-11-15T10:40:24;2.25;;;1.75;;
48777;SDS011;34578;0.000;0.000;2022-11-15T10:45:29;1.80;;;1.70;;
48777;SDS011;34578;0.000;0.000;2022-11-15T10:50:31;1.73;;;1.50;;
48777;SDS011;34578;0.000;0.000;2022-11-15T10:55:32;2.45;;;1.48;;
48777;SDS011;34578;0.000;0.000;2022-11-15T11:00:37;2.17;;;1.60;;
48777;SDS011;34578;0.000;0.000;2022-11-15T11:05:41;1.90;;;1.42;;
48777;SDS011;34578;0.000;0.000;2022-11-15T11:10:52;1.40;;;1.27;;
48777;SDS011;34578;0.000;0.000;2022-11-15T11:21:17;1.42;;;1.33;;
48777;SDS011;34578;0.000;0.000;2022-11-15T11:36:54;1.70;;;1.30;;
48777;SDS011;34578;0.000;0.000;2022-11-15T11:58:02;2.25;;;1.58;;
48777;SDS011;34578;0.000;0.000;2022-11-15T12:13:44;1.35;;;1.25;;
48777;SDS011;34578;0.000;0.000;2022-11-15T12:18:50;1.33;;;1.17;;
48777;SDS011;34578;0.000;0.000;2022-11-15T12:23:54;1.55;;;1.30;;
48777;SDS011;34578;0.000;0.000;2022-11-15T12:29:06;1.90;;;1.10;;
48777;SDS011;34578;0.000;0.000;2022-11-15T12:34:29;1.60;;;1.50;;
48777;SDS011;34578;0.000;0.000;2022-11-15T12:50:58;3.80;;;1.70;;
48777;SDS011;34578;0.000;0.000;2022-11-15T13:06:36;12.82;;;2.05;;
48777;SDS011;34578;0.000;0.000;2022-11-15T13:11:43;2.53;;;1.58;;
48777;SDS011;34578;0.000;0.000;2022-11-15T13:16:46;6.90;;;1.80;;
48777;SDS011;34578;0.000;0.000;2022-11-15T13:21:48;4.60;;;1.45;;
48777;SDS011;34578;0.000;0.000;2022-11-15T13:27:14;5.70;;;1.75;;
48777;SDS011;34578;0.000;0.000;2022-11-15T13:32:18;3.58;;;1.65;;
48777;SDS011;34578;0.000;0.000;2022-11-15T13:42:20;8.82;;;1.77;;
48777;SDS011;34578;0.000;0.000;2022-11-15T13:47:21;5.97;;;1.52;;
48777;SDS011;34578;0.000;0.000;2022-11-15T13:52:21;5.70;;;1.97;;
48777;SDS011;34578;0.000;0.000;2022-11-15T13:57:29;4.70;;;1.92;;
48777;SDS011;34578;0.000;0.000;2022-11-15T14:02:35;4.60;;;1.67;;
48777;SDS011;34578;0.000;0.000;2022-11-15T14:07:36;3.78;;;1.60;;
48777;SDS011;34578;0.000;0.000;2022-11-15T14:12:36;2.15;;;1.35;;
48777;SDS011;34578;0.000;0.000;2022-11-15T14:17:38;6.43;;;1.63;;
48777;SDS011;34578;0.000;0.000;2022-11-15T14:22:40;3.65;;;1.40;;
48777;SDS011;34578;0.000;0.000;2022-11-15T14:28:08;2.75;;;1.73;;
48777;SDS011;34578;0.000;0.000;2022-11-15T14:38:32;1.48;;;1.35;;
48777;SDS011;34578;0.000;0.000;2022-11-15T14:43:32;4.22;;;1.40;;
48777;SDS011;34578;0.000;0.000;2022-11-15T14:48:33;3.70;;;1.47;;
48777;SDS011;34578;0.000;0.000;2022-11-15T14:53:33;5.03;;;1.70;;
48777;SDS011;34578;0.000;0.000;2022-11-15T14:58:33;3.90;;;1.53;;
48777;SDS011;34578;0.000;0.000;2022-11-15T15:03:34;2.30;;;1.50;;
48777;SDS011;34578;0.000;0.000;2022-11-15T15:08:34;1.40;;;1.30;;
48777;SDS011;34578;0.000;0.000;2022-11-15T15:13:34;3.20;;;1.40;;
48777;SDS011;34578;0.000;0.000;2022-11-15T15:18:35;3.27;;;1.60;;
48777;SDS011;34578;0.000;0.000;2022-11-15T15:23:35;3.47;;;1.50;;
48777;SDS011;34578;0.000;0.000;2022-11-15T15:28:36;3.27;;;1.30;;
48777;SDS011;34578;0.000;0.000;2022-11-15T15:33:38;3.67;;;1.20;;
48777;SDS011;34578;0.000;0.000;2022-11-15T15:38:38;3.93;;;1.43;;
48777;SDS011;34578;0.000;0.000;2022-11-15T15:43:41;5.40;;;1.58;;
48777;SDS011;34578;0.000;0.000;2022-11-15T15:48:42;4.55;;;1.70;;
48777;SDS011;34578;0.000;0.000;2022-11-15T15:53:42;4.90;;;1.40;;
48777;SDS011;34578;0.000;0.000;2022-11-15T15:58:42;6.00;;;2.37;;
48777;SDS011;34578;0.000;0.000;2022-11-15T16:03:43;4.10;;;1.80;;
48777;SDS011;34578;0.000;0.000;2022-11-15T16:08:43;5.87;;;1.50;;
48777;SDS011;34578;0.000;0.000;2022-11-15T16:13:44;3.03;;;1.80;;
48777;SDS011;34578;0.000;0.000;2022-11-15T16:18:44;3.47;;;1.40;;
48777;SDS011;34578;0.000;0.000;2022-11-15T16:23:44;2.23;;;1.63;;
48777;SDS011;34578;0.000;0.000;2022-11-15T16:28:45;5.53;;;1.70;;
48777;SDS011;34578;0.000;0.000;2022-11-15T16:33:45;2.70;;;1.43;;
48777;SDS011;34578;0.000;0.000;2022-11-15T16:38:46;4.15;;;1.80;;
48777;SDS011;34578;0.000;0.000;2022-11-15T16:43:49;3.55;;;1.85;;
48777;SDS011;34578;0.000;0.000;2022-11-15T16:48:50;8.70;;;1.63;;
48777;SDS011;34578;0.000;0.000;2022-11-15T16:53:51;6.50;;;2.20;;
48777;SDS011;34578;0.000;0.000;2022-11-15T16:58:52;6.55;;;2.00;;
48777;SDS011;34578;0.000;0.000;2022-11-15T17:03:57;2.20;;;1.50;;
48777;SDS011;34578;0.000;0.000;2022-11-15T17:08:58;4.88;;;1.95;;
48777;SDS011;34578;0.000;0.000;2022-11-15T17:13:58;2.83;;;1.97;;
48777;SDS011;34578;0.000;0.000;2022-11-15T17:18:59;6.67;;;1.77;;
48777;SDS011;34578;0.000;0.000;2022-11-15T17:23:59;3.90;;;1.90;;
48777;SDS011;34578;0.000;0.000;2022-11-15T17:29:00;4.75;;;1.73;;
48777;SDS011;34578;0.000;0.000;2022-11-15T17:34:01;8.80;;;2.10;;
48777;SDS011;34578;0.000;0.000;2022-11-15T17:39:03;2.70;;;1.70;;
48777;SDS011;34578;0.000;0.000;2022-11-15T17:44:03;2.90;;;1.73;;
48777;SDS011;34578;0.000;0.000;2022-11-15T17:49:04;3.80;;;2.07;;
48777;SDS011;34578;0.000;0.000;2022-11-15T17:54:04;2.30;;;1.80;;
48777;SDS011;34578;0.000;0.000;2022-11-15T17:59:05;4.00;;;2.17;;
48777;SDS011;34578;0.000;0.000;2022-11-15T18:04:06;7.32;;;2.28;;
48777;SDS011;34578;0.000;0.000;2022-11-15T18:09:08;2.45;;;1.77;;
48777;SDS011;34578;0.000;0.000;2022-11-15T18:14:12;5.33;;;2.03;;
48777;SDS011;34578;0.000;0.000;2022-11-15T18:19:14;11.30;;;2.23;;
48777;SDS011;34578;0.000;0.000;2022-11-15T18:24:14;7.80;;;2.00;;
48777;SDS011;34578;0.000;0.000;2022-11-15T18:29:15;6.13;;;2.20;;
48777;SDS011;34578;0.000;0.000;2022-11-15T18:34:15;6.85;;;2.22;;
48777;SDS011;34578;0.000;0.000;2022-11-15T18:39:16;5.72;;;2.10;;
48777;SDS011;34578;0.000;0.000;2022-11-15T18:44:17;5.25;;;2.35;;
48777;SDS011;34578;0.000;0.000;2022-11-15T18:49:17;1.85;;;1.48;;
48777;SDS011;34578;0.000;0.000;2022-11-15T18:54:19;4.60;;;1.88;;
48777;SDS011;34578;0.000;0.000;2022-11-15T18:59:19;6.00;;;2.00;;
48777;SDS011;34578;0.000;0.000;2022-11-15T19:04:20;3.87;;;1.80;;
48777;SDS011;34578;0.000;0.000;2022-11-15T19:09:21;7.15;;;1.60;;
48777;SDS011;34578;0.000;0.000;2022-11-15T19:14:24;3.75;;;1.88;;
48777;SDS011;34578;0.000;0.000;2022-11-15T19:19:25;4.75;;;1.48;;
48777;SDS011;34578;0.000;0.000;2022-11-15T19:24:29;5.68;;;1.90;;
48777;SDS011;34578;0.000;0.000;2022-11-15T19:29:29;3.35;;;1.80;;
48777;SDS011;34578;0.000;0.000;2022-11-15T19:34:30;2.10;;;1.53;;
48777;SDS011;34578;0.000;0.000;2022-11-15T19:39:30;2.13;;;1.37;;
48777;SDS011;34578;0.000;0.000;2022-11-15T19:44:31;4.63;;;2.17;;
48777;SDS011;34578;0.000;0.000;2022-11-15T19:49:31;3.37;;;1.80;;
48777;SDS011;34578;0.000;0.000;2022-11-15T19:54:31;9.50;;;2.33;;
48777;SDS011;34578;0.000;0.000;2022-11-15T19:59:32;6.27;;;2.23;;
48777;SDS011;34578;0.000;0.000;2022-11-15T20:04:32;6.43;;;2.50;;
48777;SDS011;34578;0.000;0.000;2022-11-15T20:09:32;4.87;;;2.10;;
48777;SDS011;34578;0.000;0.000;2022-11-15T20:14:33;6.30;;;2.70;;
48777;SDS011;34578;0.000;0.000;2022-11-15T20:19:33;6.07;;;2.40;;
48777;SDS011;34578;0.000;0.000;2022-11-15T20:24:33;6.20;;;2.22;;
48777;SDS011;34578;0.000;0.000;2022-11-15T20:29:34;6.65;;;2.00;;
48777;SDS011;34578;0.000;0.000;2022-11-15T20:34:34;6.10;;;2.27;;
48777;SDS011;34578;0.000;0.000;2022-11-15T20:39:35;6.82;;;2.13;;
48777;SDS011;34578;0.000;0.000;2022-11-15T20:44:35;5.20;;;2.30;;
48777;SDS011;34578;0.000;0.000;2022-11-15T20:49:36;4.13;;;2.00;;
48777;SDS011;34578;0.000;0.000;2022-11-15T20:54:36;4.03;;;2.23;;
48777;SDS011;34578;0.000;0.000;2022-11-15T20:59:36;4.53;;;2.20;;
48777;SDS011;34578;0.000;0.000;2022-11-15T21:04:37;5.70;;;2.27;;
48777;SDS011;34578;0.000;0.000;2022-11-15T21:09:37;5.87;;;2.10;;
48777;SDS011;34578;0.000;0.000;2022-11-15T21:14:56;5.80;;;1.88;;
48777;SDS011;34578;0.000;0.000;2022-11-15T21:19:56;3.33;;;1.80;;
48777;SDS011;34578;0.000;0.000;2022-11-15T21:24:56;4.15;;;1.73;;
48777;SDS011;34578;0.000;0.000;2022-11-15T21:29:59;4.38;;;1.92;;
48777;SDS011;34578;0.000;0.000;2022-11-15T21:35:00;2.60;;;1.57;;
48777;SDS011;34578;0.000;0.000;2022-11-15T21:40:00;5.20;;;1.67;;
48777;SDS011;34578;0.000;0.000;2022-11-15T21:45:00;7.57;;;2.37;;
48777;SDS011;34578;0.000;0.000;2022-11-15T21:50:01;2.83;;;1.52;;
48777;SDS011;34578;0.000;0.000;2022-11-15T21:55:01;3.15;;;1.75;;
48777;SDS011;34578;0.000;0.000;2022-11-15T22:00:02;2.33;;;1.40;;
48777;SDS011;34578;0.000;0.000;2022-11-15T22:05:22;2.65;;;1.60;;
48777;SDS011;34578;0.000;0.000;2022-11-15T22:10:22;5.73;;;2.13;;
48777;SDS011;34578;0.000;0.000;2022-11-15T22:15:22;2.47;;;1.63;;
48777;SDS011;34578;0.000;0.000;2022-11-15T22:20:23;3.10;;;1.60;;
48777;SDS011;34578;0.000;0.000;2022-11-15T22:25:26;3.50;;;1.40;;
48777;SDS011;34578;0.000;0.000;2022-11-15T22:30:27;2.97;;;1.63;;
48777;SDS011;34578;0.000;0.000;2022-11-15T22:35:27;3.05;;;1.60;;
48777;SDS011;34578;0.000;0.000;2022-11-15T22:40:28;1.30;;;1.20;;
48777;SDS011;34578;0.000;0.000;2022-11-15T22:45:28;3.08;;;1.65;;
48777;SDS011;34578;0.000;0.000;2022-11-15T22:50:29;3.90;;;1.60;;
48777;SDS011;34578;0.000;0.000;2022-11-15T22:55:29;3.23;;;1.53;;
48777;SDS011;34578;0.000;0.000;2022-11-15T23:00:30;2.60;;;1.20;;
48777;SDS011;34578;0.000;0.000;2022-11-15T23:05:30;2.92;;;1.17;;
48777;SDS011;34578;0.000;0.000;2022-11-15T23:10:30;2.55;;;1.48;;
48777;SDS011;34578;0.000;0.000;2022-11-15T23:15:50;2.45;;;1.00;;
48777;SDS011;34578;0.000;0.000;2022-11-15T23:21:10;4.18;;;1.58;;
48777;SDS011;34578;0.000;0.000;2022-11-15T23:26:12;4.32;;;1.65;;
48777;SDS011;34578;0.000;0.000;2022-11-15T23:31:12;2.90;;;1.20;;
48777;SDS011;34578;0.000;0.000;2022-11-15T23:36:31;4.05;;;1.42;;
48777;SDS011;34578;0.000;0.000;2022-11-15T23:41:31;2.93;;;1.13;;
48777;SDS011;34578;0.000;0.000;2022-11-15T23:46:32;1.97;;;1.00;;
48777;SDS011;34578;0.000;0.000;2022-11-15T23:51:32;4.03;;;1.50;;
48777;SDS011;34578;0.000;0.000;2022-11-15T23:56:33;2.85;;;1.67;;
